Time;durP1;ratioP1;P1;durP2;ratioP2;P2;SDS_P1;SDS_P2;PMS_P1;PMS_P2;Temp;Humidity;BMP_temperature;BMP_pressure;BME280_temperature;BME280_humidity;BME280_pressure;Samples;Min_cycle;Max_cycle;Signal;HPM_P1;HPM_P2
2022/04/07 00:00:55;;;;;;;4.17;2.80;;;9.50;99.90;;;;;;4977962;28;20255;-83
2022/04/07 00:03:20;;;;;;;4.60;2.80;;;9.50;99.90;;;;;;4977737;28;20172;-83
2022/04/07 00:05:46;;;;;;;4.90;2.83;;;9.40;99.90;;;;;;4977729;28;20200;-83
2022/04/07 00:08:12;;;;;;;4.03;2.80;;;9.40;99.90;;;;;;4977348;28;20184;-83
2022/04/07 00:10:38;;;;;;;6.47;3.47;;;9.40;99.90;;;;;;4977575;28;20172;-83
2022/04/07 00:13:04;;;;;;;4.20;3.03;;;9.40;99.90;;;;;;4977617;28;20184;-83
2022/04/07 00:15:30;;;;;;;5.63;3.10;;;9.40;99.90;;;;;;4977455;28;20568;-83
2022/04/07 00:17:58;;;;;;;5.00;3.30;;;9.40;99.90;;;;;;4977624;28;20220;-83
2022/04/07 00:20:24;;;;;;;5.30;3.40;;;9.40;99.90;;;;;;4977401;28;20176;-83
2022/04/07 00:22:50;;;;;;;5.50;3.20;;;9.30;99.90;;;;;;4976108;28;20193;-82
2022/04/07 00:25:16;;;;;;;5.83;3.57;;;9.30;99.90;;;;;;4992435;28;20275;-82
2022/04/07 00:27:42;;;;;;;6.00;3.40;;;9.20;99.90;;;;;;4977410;28;20165;-82
2022/04/07 00:30:11;;;;;;;5.03;3.30;;;9.20;99.90;;;;;;4977340;28;20608;-83
2022/04/07 00:32:44;;;;;;;7.00;3.40;;;9.20;99.90;;;;;;4976324;28;20184;-83
2022/04/07 00:35:10;;;;;;;6.00;3.00;;;9.20;99.90;;;;;;4977180;28;20200;-83
2022/04/07 00:37:37;;;;;;;5.23;3.60;;;9.20;99.90;;;;;;4977206;28;20207;-83
2022/04/07 00:40:03;;;;;;;5.07;3.53;;;9.20;99.90;;;;;;4976048;28;20184;-83
2022/04/07 00:42:29;;;;;;;7.10;3.43;;;9.30;99.90;;;;;;4977113;28;20255;-83
2022/04/07 00:44:55;;;;;;;5.17;3.33;;;9.20;99.90;;;;;;4975903;28;20211;-83
2022/04/07 00:47:22;;;;;;;6.07;3.87;;;9.20;99.90;;;;;;4977002;28;20608;-83
2022/04/07 00:49:47;;;;;;;5.87;3.47;;;9.20;99.90;;;;;;4976866;28;20172;-83
2022/04/07 00:52:15;;;;;;;7.80;3.33;;;9.30;99.90;;;;;;4976950;28;20731;-82
2022/04/07 00:54:41;;;;;;;4.60;3.33;;;9.30;99.90;;;;;;4976802;28;20250;-83
2022/04/07 00:57:09;;;;;;;4.90;3.07;;;9.30;99.90;;;;;;4976833;28;20212;-83
2022/04/07 00:59:35;;;;;;;6.00;3.63;;;9.30;99.90;;;;;;4975477;28;20181;-83
2022/04/07 01:02:03;;;;;;;4.90;3.03;;;9.30;99.90;;;;;;4975448;28;20180;-82
2022/04/07 01:04:28;;;;;;;4.53;3.30;;;9.30;99.90;;;;;;4976282;28;20212;-83
2022/04/07 01:06:54;;;;;;;5.10;3.40;;;9.30;99.90;;;;;;4976640;28;20185;-82
2022/04/07 01:09:20;;;;;;;5.20;2.97;;;9.20;99.90;;;;;;4975210;28;20180;-84
2022/04/07 01:11:46;;;;;;;5.70;3.33;;;9.20;99.90;;;;;;4976628;28;20180;-83
2022/04/07 01:14:12;;;;;;;4.67;3.20;;;9.10;99.90;;;;;;4976347;28;20224;-83
2022/04/07 01:16:38;;;;;;;5.97;3.50;;;9.20;99.90;;;;;;4976454;28;20243;-83
2022/04/07 01:19:04;;;;;;;6.03;3.30;;;9.20;99.90;;;;;;4974791;28;20213;-83
2022/04/07 01:21:33;;;;;;;4.83;3.00;;;9.20;99.90;;;;;;4991233;28;20180;-83
2022/04/07 01:24:07;;;;;;;6.57;3.17;;;9.10;99.90;;;;;;4991326;28;20212;-83
2022/04/07 01:26:37;;;;;;;5.93;3.10;;;9.10;99.90;;;;;;4976283;28;20185;-83
2022/04/07 01:29:05;;;;;;;6.77;3.23;;;9.10;99.90;;;;;;4976338;28;20219;-83
2022/04/07 01:31:32;;;;;;;4.53;3.10;;;9.00;99.90;;;;;;4991286;28;20251;-83
2022/04/07 01:33:59;;;;;;;7.37;3.53;;;9.00;99.90;;;;;;4975957;28;20181;-83
2022/04/07 01:36:27;;;;;;;5.43;3.27;;;9.10;99.90;;;;;;4976119;28;20690;-82
2022/04/07 01:38:55;;;;;;;4.13;3.40;;;9.10;99.90;;;;;;4990909;28;20223;-83
2022/04/07 01:41:21;;;;;;;5.10;3.27;;;9.10;99.90;;;;;;4975982;28;20169;-82
2022/04/07 01:43:49;;;;;;;6.07;3.37;;;9.10;99.90;;;;;;4975751;28;20232;-83
2022/04/07 01:46:15;;;;;;;4.57;3.70;;;9.10;99.90;;;;;;4991081;28;20185;-83
2022/04/07 01:48:43;;;;;;;5.50;3.53;;;9.20;99.90;;;;;;4975727;28;20246;-83
2022/04/07 01:51:11;;;;;;;9.07;4.30;;;9.20;99.90;;;;;;4974692;28;20564;-82
2022/04/07 01:53:38;;;;;;;9.63;4.03;;;9.30;99.90;;;;;;4974658;28;20279;-83
2022/04/07 01:56:05;;;;;;;6.80;4.03;;;9.30;99.90;;;;;;4975797;28;20177;-82
2022/04/07 01:58:31;;;;;;;5.30;3.53;;;9.30;99.90;;;;;;4975729;28;20267;-83
2022/04/07 02:00:57;;;;;;;5.73;4.20;;;9.30;99.90;;;;;;4975496;28;20187;-82
2022/04/07 02:03:23;;;;;;;7.27;4.47;;;9.20;99.90;;;;;;4975628;28;20263;-83
2022/04/07 02:05:48;;;;;;;10.43;4.90;;;9.20;99.90;;;;;;4975475;28;20587;-82
2022/04/07 02:08:14;;;;;;;7.87;4.43;;;9.10;99.90;;;;;;4974414;28;20218;-82
2022/04/07 02:10:40;;;;;;;9.40;4.73;;;9.00;99.90;;;;;;4975707;28;20215;-82
2022/04/07 02:13:05;;;;;;;8.03;4.83;;;9.00;99.90;;;;;;4975471;28;20523;-81
2022/04/07 02:15:31;;;;;;;8.20;4.97;;;9.00;99.90;;;;;;4975334;28;20233;-82
2022/04/07 02:17:57;;;;;;;6.23;4.63;;;8.90;99.90;;;;;;4975311;28;20208;-82
2022/04/07 02:20:22;;;;;;;6.57;4.43;;;8.90;99.90;;;;;;4975229;28;20620;-81
2022/04/07 02:22:48;;;;;;;7.47;4.47;;;8.90;99.90;;;;;;4974157;28;20243;-82
2022/04/07 02:25:14;;;;;;;5.97;4.53;;;8.90;99.90;;;;;;4975509;28;20239;-81
2022/04/07 02:27:41;;;;;;;9.30;5.23;;;8.90;99.90;;;;;;5470674;22;20295;-81
2022/04/07 02:30:14;;;;;;;9.13;5.13;;;8.80;99.90;;;;;;4975837;28;20196;-82
2022/04/07 02:32:41;;;;;;;7.87;5.17;;;8.80;99.90;;;;;;4974876;28;20202;-81
2022/04/07 02:35:08;;;;;;;9.20;5.33;;;8.80;99.90;;;;;;4974944;28;20263;-82
2022/04/07 02:37:34;;;;;;;7.53;5.17;;;8.80;99.90;;;;;;4975298;28;20581;-81
2022/04/07 02:40:00;;;;;;;8.17;5.10;;;8.80;99.90;;;;;;4975303;28;20184;-82
2022/04/07 02:42:26;;;;;;;8.47;5.13;;;8.80;99.90;;;;;;4975054;28;20202;-82
2022/04/07 02:44:51;;;;;;;6.37;4.87;;;8.80;99.90;;;;;;4973941;28;20192;-81
2022/04/07 02:47:17;;;;;;;7.57;5.50;;;8.80;99.90;;;;;;4976579;28;20185;-82
2022/04/07 02:49:43;;;;;;;7.87;5.10;;;8.80;99.90;;;;;;4994417;28;20250;-81
2022/04/07 02:52:10;;;;;;;8.27;5.40;;;8.80;99.90;;;;;;4994472;28;20243;-81
2022/04/07 02:54:36;;;;;;;9.00;5.03;;;8.80;99.90;;;;;;4995311;28;20188;-81
2022/04/07 02:57:03;;;;;;;7.20;5.30;;;8.90;99.90;;;;;;4997529;28;20183;-82
2022/04/07 02:59:28;;;;;;;11.13;5.03;;;8.90;99.90;;;;;;4998186;28;20215;-81
2022/04/07 03:01:56;;;;;;;5.93;4.40;;;8.80;99.90;;;;;;4998288;28;20619;-81
2022/04/07 03:04:25;;;;;;;6.87;4.47;;;8.90;99.90;;;;;;4998132;28;20180;-82
2022/04/07 03:06:52;;;;;;;7.00;4.27;;;8.80;99.90;;;;;;4998193;28;20186;-81
2022/04/07 03:09:19;;;;;;;6.13;4.30;;;8.80;99.90;;;;;;4998388;28;20176;-81
2022/04/07 03:11:46;;;;;;;5.47;3.90;;;8.90;99.90;;;;;;4998216;28;20179;-81
2022/04/07 03:14:12;;;;;;;6.17;4.10;;;8.80;99.90;;;;;;4996805;28;20290;-81
2022/04/07 03:16:38;;;;;;;5.17;3.13;;;8.80;99.90;;;;;;4996912;28;20529;-81
2022/04/07 03:19:04;;;;;;;4.60;2.87;;;8.80;99.90;;;;;;4997584;28;20227;-80
2022/04/07 03:21:30;;;;;;;4.03;2.80;;;8.80;99.90;;;;;;4998187;28;20164;-81
2022/04/07 03:23:55;;;;;;;6.13;2.73;;;8.70;99.90;;;;;;4998238;28;20183;-82
2022/04/07 03:26:21;;;;;;;4.00;2.30;;;8.70;99.90;;;;;;4997993;28;20255;-82
2022/04/07 03:28:47;;;;;;;2.73;2.03;;;8.60;99.90;;;;;;4997719;28;20251;-82
2022/04/07 03:31:12;;;;;;;4.10;2.30;;;8.60;99.90;;;;;;4997908;28;20180;-83
2022/04/07 03:33:38;;;;;;;3.00;1.60;;;8.60;99.90;;;;;;4981856;28;20192;-82
2022/04/07 03:36:04;;;;;;;2.10;1.50;;;8.70;99.90;;;;;;4978273;28;20480;-82
2022/04/07 03:38:29;;;;;;;1.90;1.73;;;8.60;99.90;;;;;;4978136;28;20222;-82
2022/04/07 03:40:55;;;;;;;1.93;1.40;;;8.60;99.90;;;;;;4978378;28;20204;-82
2022/04/07 03:43:21;;;;;;;2.90;1.57;;;8.60;99.90;;;;;;4978096;28;20204;-82
2022/04/07 03:45:47;;;;;;;2.40;1.70;;;8.50;99.90;;;;;;4978238;28;20651;-82
2022/04/07 03:48:12;;;;;;;5.53;2.20;;;8.50;99.90;;;;;;4987104;28;20227;-80
2022/04/07 03:50:38;;;;;;;3.43;1.90;;;8.50;99.90;;;;;;4996013;28;20214;-82
2022/04/07 03:53:04;;;;;;;4.63;2.90;;;8.50;99.90;;;;;;4997545;28;20176;-82
2022/04/07 03:55:30;;;;;;;3.33;2.27;;;8.50;99.90;;;;;;4997557;28;20613;-82
2022/04/07 03:57:56;;;;;;;2.80;2.33;;;8.50;99.90;;;;;;4997187;28;20203;-82
2022/04/07 04:00:22;;;;;;;3.80;2.40;;;8.50;99.90;;;;;;4997319;28;20176;-82
2022/04/07 04:02:50;;;;;;;4.20;2.40;;;8.50;99.90;;;;;;4997298;28;20165;-83
2022/04/07 04:05:17;;;;;;;3.00;2.10;;;8.50;99.90;;;;;;4996767;28;20524;-82
2022/04/07 04:07:42;;;;;;;3.23;1.90;;;8.50;99.90;;;;;;4997186;28;20184;-82
2022/04/07 04:10:08;;;;;;;2.13;1.80;;;8.60;99.90;;;;;;4995870;28;20179;-83
2022/04/07 04:12:34;;;;;;;2.67;1.97;;;8.60;99.90;;;;;;4995841;28;20183;-83
2022/04/07 04:15:01;;;;;;;4.90;1.97;;;8.50;99.90;;;;;;4997167;28;20468;-83
2022/04/07 04:17:31;;;;;;;3.47;2.03;;;8.50;99.90;;;;;;4996923;28;20302;-83
2022/04/07 04:19:57;;;;;;;2.17;1.77;;;8.40;99.90;;;;;;4996833;28;20253;-83
2022/04/07 04:22:23;;;;;;;4.07;1.90;;;8.40;99.90;;;;;;4995704;28;20176;-82
2022/04/07 04:24:49;;;;;;;3.00;1.60;;;8.40;99.90;;;;;;4997107;28;20194;-83
2022/04/07 04:27:14;;;;;;;3.40;1.80;;;8.40;99.90;;;;;;4997000;28;20274;-82
2022/04/07 04:29:41;;;;;;;3.67;1.87;;;8.40;99.90;;;;;;4996855;28;20179;-82
2022/04/07 04:32:07;;;;;;;6.47;1.77;;;8.50;99.90;;;;;;4995526;28;20199;-83
2022/04/07 04:34:32;;;;;;;2.73;1.50;;;8.50;99.90;;;;;;4995288;28;20188;-83
2022/04/07 04:36:58;;;;;;;3.63;1.70;;;8.50;99.90;;;;;;4996823;28;20187;-83
2022/04/07 04:39:24;;;;;;;4.93;1.40;;;8.50;99.90;;;;;;4995248;28;20552;-82
2022/04/07 04:41:50;;;;;;;2.40;1.57;;;8.60;99.90;;;;;;4995199;28;20176;-82
2022/04/07 04:44:16;;;;;;;4.93;2.13;;;8.60;99.90;;;;;;4996469;28;20191;-83
2022/04/07 04:46:41;;;;;;;4.80;1.43;;;8.60;99.90;;;;;;4996568;28;20180;-82
2022/04/07 04:49:07;;;;;;;3.20;1.40;;;8.60;99.90;;;;;;4995016;28;20202;-83
2022/04/07 04:51:33;;;;;;;2.47;1.37;;;8.60;99.90;;;;;;4994616;28;20207;-83
2022/04/07 04:53:58;;;;;;;3.33;1.40;;;8.60;99.90;;;;;;4995048;28;20188;-83
2022/04/07 04:56:27;;;;;;;3.03;1.27;;;8.70;99.90;;;;;;4996247;28;20180;-83
2022/04/07 04:58:57;;;;;;;3.20;1.30;;;8.70;99.90;;;;;;4996046;28;20295;-83
2022/04/07 05:01:23;;;;;;;2.10;1.27;;;8.70;99.90;;;;;;4996148;28;20575;-83
2022/04/07 05:03:49;;;;;;;2.33;1.20;;;8.70;99.90;;;;;;5010219;28;20179;-81
2022/04/07 05:06:14;;;;;;;7.37;1.50;;;8.70;99.90;;;;;;4995153;28;20184;-83
2022/04/07 05:08:40;;;;;;;2.20;1.20;;;8.70;99.90;;;;;;4995643;28;20183;-83
2022/04/07 05:11:06;;;;;;;1.90;1.13;;;8.80;99.90;;;;;;4994527;28;20518;-84
2022/04/07 05:13:31;;;;;;;2.53;1.20;;;8.80;99.90;;;;;;5003781;28;20237;-83
2022/04/07 05:15:57;;;;;;;3.70;1.20;;;8.80;99.90;;;;;;5015586;28;20175;-83
2022/04/07 05:18:23;;;;;;;3.10;1.43;;;8.80;99.90;;;;;;5004116;28;20208;-82
2022/04/07 05:20:48;;;;;;;2.63;1.60;;;8.90;99.90;;;;;;4995066;28;20648;-83
2022/04/07 05:23:14;;;;;;;1.87;1.50;;;8.90;99.90;;;;;;4995503;28;20164;-83
2022/04/07 05:25:40;;;;;;;2.20;1.43;;;9.00;99.90;;;;;;4994188;28;20202;-83
2022/04/07 05:28:06;;;;;;;4.87;1.50;;;9.00;99.90;;;;;;4995117;28;20223;-83
2022/04/07 05:30:32;;;;;;;3.50;1.47;;;9.00;99.90;;;;;;4995417;28;20271;-83
2022/04/07 05:32:58;;;;;;;5.13;1.87;;;9.00;99.90;;;;;;4994103;28;20180;-83
2022/04/07 05:35:27;;;;;;;3.87;1.90;;;9.00;99.90;;;;;;4995213;28;20245;-83
2022/04/07 05:38:02;;;;;;;3.77;2.10;;;9.00;99.90;;;;;;4995454;28;20243;-83
2022/04/07 05:40:29;;;;;;;5.60;2.63;;;9.10;99.90;;;;;;4995358;28;20178;-82
2022/04/07 05:42:55;;;;;;;6.20;2.20;;;9.10;99.90;;;;;;4995606;28;20226;-82
2022/04/07 05:45:22;;;;;;;3.73;2.33;;;9.10;99.90;;;;;;4994018;28;20500;-83
2022/04/07 05:47:48;;;;;;;3.57;2.30;;;9.20;99.90;;;;;;4995339;28;20292;-83
2022/04/07 05:50:13;;;;;;;2.60;2.20;;;9.20;99.90;;;;;;4993863;28;20183;-83
2022/04/07 05:52:39;;;;;;;5.90;2.10;;;9.20;99.90;;;;;;4993558;28;20263;-83
2022/04/07 05:55:05;;;;;;;3.10;2.00;;;9.30;99.90;;;;;;4994003;28;20493;-83
2022/04/07 05:57:31;;;;;;;3.63;2.23;;;9.30;99.90;;;;;;4994891;28;20659;-82
2022/04/07 06:00:12;;;;;;;2.73;1.90;;;9.30;99.90;;;;;;4993805;28;20207;-83
2022/04/07 06:02:38;;;;;;;2.47;1.70;;;9.40;99.90;;;;;;4993868;28;20176;-83
2022/04/07 06:05:06;;;;;;;4.03;1.90;;;9.40;99.90;;;;;;4994862;28;20184;-84
2022/04/07 06:07:32;;;;;;;2.27;1.23;;;9.40;99.90;;;;;;4994937;28;20172;-83
2022/04/07 06:09:57;;;;;;;3.23;1.57;;;9.40;99.90;;;;;;4995194;28;20179;-82
2022/04/07 06:12:23;;;;;;;2.37;1.37;;;9.50;99.90;;;;;;4993834;28;20180;-84
2022/04/07 06:14:49;;;;;;;4.53;1.57;;;9.50;99.90;;;;;;4994864;28;20164;-83
2022/04/07 06:17:14;;;;;;;2.47;1.33;;;9.50;99.90;;;;;;4994891;28;20665;-83
2022/04/07 06:19:40;;;;;;;2.37;1.20;;;9.60;99.90;;;;;;4994544;28;20255;-80
2022/04/07 06:22:07;;;;;;;2.40;1.10;;;9.60;99.90;;;;;;4995159;28;20251;-83
2022/04/07 06:24:34;;;;;;;1.87;0.80;;;9.60;99.90;;;;;;4993881;28;20215;-83
2022/04/07 06:27:00;;;;;;;2.03;1.00;;;9.70;99.90;;;;;;4994818;28;20318;-82
2022/04/07 06:29:26;;;;;;;1.30;1.10;;;9.70;99.90;;;;;;4994766;28;20187;-83
2022/04/07 06:31:52;;;;;;;4.60;1.27;;;9.70;99.90;;;;;;4994974;28;20168;-83
2022/04/07 06:34:18;;;;;;;1.97;0.90;;;9.90;99.90;;;;;;4994673;28;20201;-82
2022/04/07 06:36:43;;;;;;;4.07;1.30;;;10.10;99.90;;;;;;4994632;28;20176;-83
2022/04/07 06:39:09;;;;;;;5.53;1.20;;;10.20;99.90;;;;;;4994693;28;20302;-83
2022/04/07 06:41:35;;;;;;;4.80;1.20;;;10.20;99.90;;;;;;4994831;28;20174;-82
2022/04/07 06:44:00;;;;;;;1.93;1.00;;;10.30;99.90;;;;;;4994834;28;20637;-82
2022/04/07 06:46:26;;;;;;;2.20;1.33;;;10.30;99.90;;;;;;4994642;28;20183;-82
2022/04/07 06:48:52;;;;;;;5.50;1.23;;;10.40;99.90;;;;;;4994561;28;20180;-82
2022/04/07 06:51:17;;;;;;;2.73;1.20;;;10.40;99.90;;;;;;4993177;28;20195;-83
2022/04/07 06:53:43;;;;;;;2.83;1.07;;;10.50;99.90;;;;;;4994720;28;20195;-81
2022/04/07 06:56:10;;;;;;;2.60;0.97;;;10.60;99.90;;;;;;4994794;28;20259;-82
2022/04/07 06:58:36;;;;;;;5.27;1.10;;;10.50;99.90;;;;;;4994580;28;20203;-82
2022/04/07 07:01:02;;;;;;;3.33;0.80;;;10.50;99.90;;;;;;4994686;28;20908;-81
2022/04/07 07:03:28;;;;;;;5.17;1.20;;;10.40;99.90;;;;;;4993368;28;20184;-83
2022/04/07 07:05:58;;;;;;;3.33;0.93;;;10.50;99.90;;;;;;4993058;28;20274;-83
2022/04/07 07:08:23;;;;;;;2.30;1.00;;;10.60;99.90;;;;;;4994559;28;20239;-83
2022/04/07 07:10:50;;;;;;;4.30;0.90;;;10.60;99.90;;;;;;4994667;28;20172;-82
2022/04/07 07:13:20;;;;;;;2.87;0.90;;;10.70;99.90;;;;;;4994638;28;20168;-82
2022/04/07 07:15:46;;;;;;;1.57;0.70;;;10.70;99.90;;;;;;4994488;28;20170;-82
2022/04/07 07:18:12;;;;;;;2.03;1.00;;;10.80;99.90;;;;;;4994131;28;20564;-83
2022/04/07 07:20:38;;;;;;;4.15;1.25;;;10.80;99.90;;;;;;4993038;28;20184;-83
2022/04/07 07:23:04;;;;;;;4.78;1.40;;;10.90;99.90;;;;;;4994446;28;20171;-82
2022/04/07 07:25:31;;;;;;;2.47;0.77;;;11.10;99.90;;;;;;4994344;28;20210;-81
2022/04/07 07:28:01;;;;;;;2.42;0.82;;;11.20;99.90;;;;;;4994201;28;20220;-83
2022/04/07 07:30:28;;;;;;;2.72;0.90;;;11.00;99.90;;;;;;4994312;28;20211;-81
2022/04/07 07:32:54;;;;;;;2.17;0.80;;;11.00;99.90;;;;;;4994257;28;20164;-82
2022/04/07 07:35:21;;;;;;;1.65;0.90;;;11.00;99.90;;;;;;4994060;28;20634;-82
2022/04/07 07:37:52;;;;;;;2.38;0.98;;;11.00;99.90;;;;;;4994192;28;20254;-81
2022/04/07 07:40:20;;;;;;;1.90;0.87;;;10.90;99.90;;;;;;4994493;28;20175;-82
2022/04/07 07:42:47;;;;;;;1.00;0.70;;;10.90;99.90;;;;;;4997784;28;20156;-82
2022/04/07 07:45:14;;;;;;;2.45;0.95;;;11.00;99.90;;;;;;4996330;28;20227;-83
2022/04/07 07:47:39;;;;;;;1.80;0.70;;;11.00;99.90;;;;;;4997579;28;20199;-82
2022/04/07 07:50:06;;;;;;;2.80;0.90;;;11.10;99.90;;;;;;4996190;28;20180;-83
2022/04/07 07:52:32;;;;;;;4.47;1.00;;;11.20;99.90;;;;;;4997562;28;20259;-83
2022/04/07 07:54:57;;;;;;;1.65;0.80;;;11.20;99.90;;;;;;4997591;28;20395;-82
2022/04/07 07:57:23;;;;;;;1.88;0.80;;;11.20;99.90;;;;;;4997277;28;20191;-83
2022/04/07 07:59:52;;;;;;;2.28;0.82;;;11.20;99.90;;;;;;4997322;28;20234;-82
2022/04/07 08:02:18;;;;;;;1.73;0.67;;;11.20;99.90;;;;;;4997493;28;20168;-81
2022/04/07 08:04:44;;;;;;;0.80;0.70;;;11.20;99.90;;;;;;4996138;28;20697;-82
2022/04/07 08:07:11;;;;;;;0.98;0.60;;;11.20;99.90;;;;;;4997097;28;20512;-82
2022/04/07 08:09:37;;;;;;;1.80;0.60;;;11.20;99.90;;;;;;4995938;28;20491;-82
2022/04/07 08:12:03;;;;;;;6.07;0.90;;;11.20;99.90;;;;;;4995865;28;20190;-82
2022/04/07 08:14:30;;;;;;;1.40;0.70;;;11.20;99.90;;;;;;4997248;28;20247;-82
2022/04/07 08:16:56;;;;;;;1.50;0.77;;;11.30;99.90;;;;;;4997259;28;20268;-83
2022/04/07 08:19:22;;;;;;;1.25;0.75;;;11.20;99.90;;;;;;4995813;28;20676;-82
2022/04/07 08:21:48;;;;;;;1.25;0.77;;;11.30;99.90;;;;;;4996617;28;20211;-82
2022/04/07 08:24:16;;;;;;;1.07;0.70;;;11.50;99.90;;;;;;4997188;28;20174;-82
2022/04/07 08:26:42;;;;;;;2.35;1.00;;;11.50;99.90;;;;;;4996702;28;20295;-81
2022/04/07 08:29:09;;;;;;;0.80;0.70;;;11.50;99.90;;;;;;4996843;28;20184;-81
2022/04/07 08:31:35;;;;;;;1.17;0.65;;;11.60;99.90;;;;;;4996908;28;20175;-82
2022/04/07 08:34:00;;;;;;;0.70;0.60;;;11.70;99.90;;;;;;4996121;28;20188;-82
2022/04/07 08:36:26;;;;;;;5.22;0.85;;;11.80;99.90;;;;;;4995456;28;20334;-81
2022/04/07 08:38:52;;;;;;;2.58;0.80;;;11.70;99.90;;;;;;4996635;28;20211;-82
2022/04/07 08:41:18;;;;;;;1.85;0.90;;;11.70;99.90;;;;;;4996609;28;20717;-82
2022/04/07 08:43:44;;;;;;;3.20;1.00;;;11.80;99.90;;;;;;4996542;28;20179;-82
2022/04/07 08:46:12;;;;;;;1.13;0.70;;;11.80;99.90;;;;;;4996619;28;20246;-82
2022/04/07 08:48:42;;;;;;;2.47;0.95;;;11.90;99.90;;;;;;4995249;28;20192;-82
2022/04/07 08:51:08;;;;;;;3.88;0.90;;;12.00;99.90;;;;;;4995001;28;20278;-83
2022/04/07 08:53:35;;;;;;;1.42;0.90;;;12.00;99.90;;;;;;4994154;28;20231;-82
2022/04/07 08:56:02;;;;;;;1.67;0.82;;;11.90;99.90;;;;;;4996370;28;20190;-82
2022/04/07 08:58:28;;;;;;;1.90;0.80;;;11.90;99.90;;;;;;4994989;28;20298;-83
2022/04/07 09:00:54;;;;;;;3.15;0.82;;;11.90;99.90;;;;;;4996454;28;20168;-83
2022/04/07 09:03:19;;;;;;;1.40;0.90;;;11.90;99.90;;;;;;4996210;28;20168;-82
2022/04/07 09:06:15;;;;;;;3.00;0.77;;;11.90;99.90;;;;;;4996029;28;20180;-83
2022/04/07 09:08:41;;;;;;;3.75;1.30;;;11.90;99.90;;;;;;4990740;28;20223;-83
2022/04/07 09:11:09;;;;;;;1.90;1.05;;;11.90;99.90;;;;;;4996138;28;20180;-82
2022/04/07 09:13:42;;;;;;;2.95;1.10;;;11.90;99.90;;;;;;4996231;28;20212;-83
2022/04/07 09:16:13;;;;;;;2.20;0.75;;;11.90;99.90;;;;;;4996260;28;20172;-82
2022/04/07 09:18:48;;;;;;;0.80;0.60;;;11.90;99.90;;;;;;4995760;28;20215;-81
2022/04/07 09:21:22;;;;;;;1.52;0.77;;;11.80;99.90;;;;;;4995696;28;20160;-82
2022/04/07 09:23:47;;;;;;;1.42;0.80;;;11.80;99.90;;;;;;4996049;28;20172;-81
2022/04/07 09:26:15;;;;;;;1.67;0.65;;;11.70;99.90;;;;;;4994456;28;20246;-82
2022/04/07 09:28:41;;;;;;;0.80;0.63;;;11.70;99.90;;;;;;4995707;28;20231;-81
2022/04/07 09:31:12;;;;;;;3.08;0.60;;;11.60;99.90;;;;;;4995658;28;20175;-81
2022/04/07 09:33:38;;;;;;;2.28;0.52;;;11.50;99.90;;;;;;4995654;28;20164;-82
2022/04/07 09:36:08;;;;;;;1.10;0.65;;;11.40;99.90;;;;;;4995543;28;20179;-82
2022/04/07 09:38:35;;;;;;;1.05;0.57;;;11.30;99.90;;;;;;4994151;28;20262;-81
2022/04/07 09:41:05;;;;;;;0.88;0.80;;;11.20;99.90;;;;;;4995662;28;20172;-83
2022/04/07 09:43:42;;;;;;;1.93;0.90;;;11.10;99.90;;;;;;4995764;28;20160;-82
2022/04/07 09:46:10;;;;;;;2.67;0.70;;;11.00;99.90;;;;;;4995444;28;20164;-82
2022/04/07 09:48:36;;;;;;;0.90;0.60;;;10.90;99.90;;;;;;4993978;28;20615;-82
2022/04/07 09:51:05;;;;;;;0.80;0.73;;;10.90;99.90;;;;;;4974504;28;20188;-80
2022/04/07 09:53:38;;;;;;;2.00;0.80;;;10.90;99.90;;;;;;4975882;28;20172;-80
2022/04/07 09:56:05;;;;;;;2.53;1.00;;;10.90;99.90;;;;;;4975942;28;20165;-80
2022/04/07 09:58:33;;;;;;;2.28;0.65;;;10.90;99.90;;;;;;4975677;28;20211;-80
2022/04/07 10:01:02;;;;;;;1.97;0.73;;;11.00;99.90;;;;;;4975847;28;20642;-80
2022/04/07 10:03:29;;;;;;;2.80;0.90;;;10.90;99.90;;;;;;4975579;28;20165;-80
2022/04/07 10:05:56;;;;;;;1.40;1.10;;;10.80;99.90;;;;;;4993328;28;20472;-84
2022/04/07 10:08:25;;;;;;;4.25;1.25;;;10.70;99.90;;;;;;4995028;28;20176;-82
2022/04/07 10:10:52;;;;;;;2.17;0.90;;;10.70;99.90;;;;;;4994994;28;20279;-82
2022/04/07 10:13:18;;;;;;;2.88;1.15;;;10.60;99.90;;;;;;4994860;28;20509;-82
2022/04/07 10:15:45;;;;;;;1.63;1.00;;;10.50;99.90;;;;;;4993819;28;20180;-82
2022/04/07 10:18:18;;;;;;;2.20;0.80;;;10.40;99.90;;;;;;4994913;28;20785;-80
2022/04/07 10:20:48;;;;;;;1.93;0.60;;;10.40;99.90;;;;;;4994796;28;20650;-80
2022/04/07 10:23:38;;;;;;;1.47;0.70;;;10.50;99.90;;;;;;4995078;28;20183;-81
2022/04/07 10:26:06;;;;;;;5.00;1.00;;;10.60;99.90;;;;;;4994988;28;20160;-82
2022/04/07 10:28:32;;;;;;;1.27;0.77;;;10.80;99.90;;;;;;4994479;28;20662;-80
2022/04/07 10:30:59;;;;;;;1.03;0.63;;;10.90;99.90;;;;;;4994905;28;20202;-81
2022/04/07 10:33:34;;;;;;;1.10;0.63;;;10.90;99.90;;;;;;4994895;28;20160;-84
2022/04/07 10:36:06;;;;;;;2.97;0.70;;;11.00;99.90;;;;;;4974974;28;20176;-82
2022/04/07 10:38:40;;;;;;;1.20;0.70;;;11.00;99.90;;;;;;4975363;28;20204;-82
2022/04/07 10:41:06;;;;;;;1.55;0.75;;;11.10;99.90;;;;;;4975336;28;20172;-82
2022/04/07 10:43:37;;;;;;;0.88;0.60;;;11.20;99.90;;;;;;4975223;28;20703;-82
2022/04/07 10:46:06;;;;;;;1.42;0.52;;;11.30;99.90;;;;;;4975362;28;20157;-82
2022/04/07 10:48:33;;;;;;;0.95;0.52;;;11.20;99.90;;;;;;4986629;28;20185;-82
2022/04/07 10:51:00;;;;;;;1.45;0.73;;;11.30;99.90;;;;;;4993166;28;20247;-82
2022/04/07 10:53:34;;;;;;;1.13;0.40;;;11.20;99.90;;;;;;4993302;28;20178;-82
2022/04/07 10:56:07;;;;;;;1.00;0.50;;;11.30;99.90;;;;;;4993427;28;20206;-82
2022/04/07 10:58:47;;;;;;;0.75;0.52;;;11.30;99.90;;;;;;4994407;28;20207;-81
2022/04/07 11:01:29;;;;;;;1.38;0.50;;;11.30;99.90;;;;;;4994582;28;20203;-81
2022/04/07 11:04:23;;;;;;;1.58;0.50;;;11.30;99.90;;;;;;4994602;28;20318;-82
2022/04/07 11:07:07;;;;;;;2.38;0.50;;;11.50;99.90;;;;;;4993008;28;20191;-81
2022/04/07 11:09:46;;;;;;;2.25;0.40;;;11.70;99.90;;;;;;4994324;28;20629;-81
2022/04/07 11:12:18;;;;;;;0.93;0.40;;;11.80;99.90;;;;;;4994407;28;20172;-81
2022/04/07 11:14:46;;;;;;;0.40;0.30;;;11.90;99.90;;;;;;4993220;28;20187;-80
2022/04/07 11:17:22;;;;;;;5.10;0.75;;;11.90;99.90;;;;;;4997765;28;20208;-80
2022/04/07 11:20:13;;;;;;;0.65;0.35;;;11.80;99.90;;;;;;4998091;28;20200;-79
2022/04/07 11:22:53;;;;;;;1.90;0.47;;;11.70;99.90;;;;;;4996553;28;20569;-81
2022/04/07 11:25:36;;;;;;;1.17;0.50;;;11.70;99.90;;;;;;4996868;28;20208;-82
2022/04/07 11:28:10;;;;;;;3.80;0.70;;;11.40;99.90;;;;;;4996379;28;20259;-81
2022/04/07 11:31:00;;;;;;;0.77;0.40;;;10.20;99.90;;;;;;4997946;28;20218;-81
2022/04/07 11:33:26;;;;;;;3.23;0.53;;;8.80;99.90;;;;;;4996777;28;20168;-81
2022/04/07 11:36:03;;;;;;;2.00;0.43;;;8.10;99.90;;;;;;4997694;28;20242;-81
2022/04/07 11:38:36;;;;;;;0.90;0.50;;;7.80;99.90;;;;;;4996167;28;20203;-81
2022/04/07 11:41:10;;;;;;;0.50;0.40;;;7.60;99.90;;;;;;4996577;28;20184;-82
2022/04/07 11:43:42;;;;;;;0.70;0.50;;;7.50;99.90;;;;;;4997546;28;20184;-81
2022/04/07 11:46:08;;;;;;;2.00;0.57;;;7.50;99.90;;;;;;4997707;28;20174;-81
2022/04/07 11:48:36;;;;;;;0.80;0.40;;;7.50;99.90;;;;;;4997606;28;20183;-81
2022/04/07 11:51:10;;;;;;;0.77;0.40;;;7.50;99.90;;;;;;4996050;28;20190;-81
2022/04/07 11:53:39;;;;;;;1.53;0.60;;;7.50;99.90;;;;;;4996277;28;20175;-81
2022/04/07 11:56:25;;;;;;;2.10;0.53;;;7.50;99.90;;;;;;4997682;28;20176;-82
2022/04/07 11:58:54;;;;;;;1.90;0.40;;;7.60;99.90;;;;;;4996042;28;20204;-81
2022/04/07 12:01:20;;;;;;;0.60;0.50;;;7.60;99.90;;;;;;4997280;28;20172;-82
2022/04/07 12:03:51;;;;;;;0.77;0.30;;;7.70;99.90;;;;;;4996089;28;20280;-82
2022/04/07 12:06:24;;;;;;;1.40;0.50;;;7.60;99.90;;;;;;4997093;28;20161;-82
2022/04/07 12:08:51;;;;;;;1.83;0.30;;;7.60;99.90;;;;;;4995995;28;20180;-82
2022/04/07 12:11:21;;;;;;;1.03;0.57;;;7.60;99.90;;;;;;4997459;28;20259;-81
2022/04/07 12:13:50;;;;;;;2.40;0.40;;;7.60;99.90;;;;;;4997008;28;20172;-81
2022/04/07 12:16:15;;;;;;;0.87;0.27;;;7.70;99.90;;;;;;4995991;28;20533;-81
2022/04/07 12:18:41;;;;;;;1.60;0.30;;;7.70;99.90;;;;;;4995595;28;20211;-82
2022/04/07 12:21:09;;;;;;;0.60;0.40;;;7.80;99.90;;;;;;4995458;28;20180;-82
2022/04/07 12:23:37;;;;;;;0.50;0.37;;;7.90;99.90;;;;;;4995823;28;20188;-82
2022/04/07 12:26:03;;;;;;;1.37;0.30;;;8.00;99.90;;;;;;4995418;28;20168;-81
2022/04/07 12:28:40;;;;;;;0.40;0.40;;;8.10;99.90;;;;;;4995260;28;20223;-82
2022/04/07 12:31:21;;;;;;;0.70;0.40;;;8.20;99.90;;;;;;4996940;28;20167;-82
2022/04/07 12:33:48;;;;;;;0.40;0.40;;;8.20;99.90;;;;;;4995659;28;20182;-82
2022/04/07 12:36:16;;;;;;;1.00;0.50;;;8.40;99.90;;;;;;4996585;28;20250;-80
2022/04/07 12:39:03;;;;;;;0.97;0.50;;;8.70;99.90;;;;;;4995303;28;20219;-81
2022/04/07 12:42:08;;;;;;;1.27;0.60;;;8.90;99.90;;;;;;4996702;28;20583;-81
2022/04/07 12:44:35;;;;;;;2.80;0.50;;;8.90;99.90;;;;;;4992751;28;20279;-80
2022/04/07 12:47:15;;;;;;;1.60;0.70;;;8.90;99.90;;;;;;4996558;28;20247;-81
2022/04/07 12:49:52;;;;;;;0.93;0.50;;;8.90;99.90;;;;;;4977016;28;20211;-81
2022/04/07 12:52:19;;;;;;;1.33;0.40;;;8.90;99.90;;;;;;4976717;28;20176;-81
2022/04/07 12:54:59;;;;;;;0.70;0.50;;;9.00;99.90;;;;;;4975952;28;20181;-81
2022/04/07 12:57:39;;;;;;;0.50;0.50;;;9.10;99.90;;;;;;4977014;28;20228;-81